Time;durP1;ratioP1;P1;durP2;ratioP2;P2;SDS_P1;SDS_P2;PMS_P1;PMS_P2;Temp;Humidity;BMP_temperature;BMP_pressure;BME280_temperature;BME280_humidity;BME280_pressure;Samples;Min_cycle;Max_cycle;Signal;HPM_P1;HPM_P2
2023/10/20 00:01:34;;;;;;;;;;;23.40;48.50;;;;;;5096969;28;19967;-61
2023/10/20 00:04:04;;;;;;;;;;;23.30;48.50;;;;;;5097256;28;20284;-61
2023/10/20 00:06:31;;;;;;;;;;;23.40;48.50;;;;;;5096870;28;20010;-62
2023/10/20 00:08:58;;;;;;;;;;;23.40;48.50;;;;;;5097039;28;19964;-61
2023/10/20 00:11:28;;;;;;;;;;;23.40;48.50;;;;;;5097160;28;20015;-61
2023/10/20 00:13:55;;;;;;;;;;;23.40;48.50;;;;;;5096622;28;19924;-61
2023/10/20 00:16:26;;;;;;;;;;;23.30;48.50;;;;;;5096740;28;19924;-61
2023/10/20 00:18:53;;;;;;;;;;;23.30;48.50;;;;;;5096779;28;20418;-62
2023/10/20 00:21:21;;;;;;;;;;;23.30;48.50;;;;;;5096681;28;19971;-62
2023/10/20 00:23:48;;;;;;;;;;;23.30;48.50;;;;;;5096880;28;20364;-61
2023/10/20 00:26:15;;;;;;;;;;;23.30;48.50;;;;;;5096873;28;19924;-61
2023/10/20 00:28:42;;;;;;;;;;;23.30;48.50;;;;;;5096425;28;20342;-61
2023/10/20 00:31:11;;;;;;;;;;;23.30;48.50;;;;;;5096820;28;19935;-61
2023/10/20 00:33:39;;;;;;;;;;;23.30;48.60;;;;;;5095381;28;19932;-62
2023/10/20 00:36:08;;;;;;;;;;;23.30;48.60;;;;;;5095271;28;20380;-62
2023/10/20 00:38:35;;;;;;;;;;;23.30;48.60;;;;;;5096681;28;19958;-61
2023/10/20 00:41:02;;;;;;;;;;;23.30;48.60;;;;;;5096635;28;19978;-62
2023/10/20 00:43:34;;;;;;;;;;;23.30;48.60;;;;;;5096139;28;20384;-62
2023/10/20 00:46:01;;;;;;;;;;;23.30;48.60;;;;;;5096555;28;19924;-61
2023/10/20 00:48:28;;;;;;;;;;;23.30;48.60;;;;;;5096157;28;19924;-62
2023/10/20 00:50:55;;;;;;;;;;;23.30;48.60;;;;;;5095815;28;19924;-61
2023/10/20 00:53:25;;;;;;;;;;;23.30;48.60;;;;;;5095986;28;19969;-61
2023/10/20 00:55:52;;;;;;;;;;;23.30;48.60;;;;;;5095807;28;20015;-61
2023/10/20 00:58:19;;;;;;;;;;;23.30;48.60;;;;;;5096209;28;20027;-61
2023/10/20 01:00:46;;;;;;;;;;;23.30;48.60;;;;;;5095418;28;20007;-62
2023/10/20 01:03:13;;;;;;;;;;;23.30;48.60;;;;;;5096212;28;19930;-61
2023/10/20 01:05:40;;;;;;;;;;;23.30;48.60;;;;;;5095872;28;19924;-62
2023/10/20 01:08:08;;;;;;;;;;;23.30;48.50;;;;;;5096152;28;19924;-61
2023/10/20 01:10:35;;;;;;;;;;;23.30;48.60;;;;;;5095232;28;20368;-62
2023/10/20 01:13:02;;;;;;;;;;;23.30;48.60;;;;;;5095983;28;19924;-61
2023/10/20 01:15:29;;;;;;;;;;;23.30;48.60;;;;;;5095126;28;19979;-62
2023/10/20 01:17:56;;;;;;;;;;;23.30;48.60;;;;;;5095806;28;19924;-61
2023/10/20 01:20:23;;;;;;;;;;;23.30;48.60;;;;;;5095032;28;20414;-61
2023/10/20 01:22:50;;;;;;;;;;;23.30;48.60;;;;;;5096040;28;20350;-61
2023/10/20 01:25:17;;;;;;;;;;;23.30;48.60;;;;;;5095391;28;19924;-62
2023/10/20 01:27:44;;;;;;;;;;;23.30;48.60;;;;;;5095893;28;19928;-62
2023/10/20 01:30:11;;;;;;;;;;;23.30;48.60;;;;;;5094507;28;19938;-61
2023/10/20 01:32:39;;;;;;;;;;;23.30;48.60;;;;;;5095261;28;19931;-62
2023/10/20 01:35:06;;;;;;;;;;;23.30;48.60;;;;;;5093943;28;20288;-62
2023/10/20 01:37:33;;;;;;;;;;;23.30;48.60;;;;;;5095442;28;19924;-62
2023/10/20 01:40:00;;;;;;;;;;;23.30;48.60;;;;;;5095543;28;19924;-61
2023/10/20 01:42:27;;;;;;;;;;;23.30;48.60;;;;;;5095101;28;19931;-62
2023/10/20 01:44:54;;;;;;;;;;;23.30;48.60;;;;;;5094569;28;19963;-62
2023/10/20 01:47:21;;;;;;;;;;;23.30;48.60;;;;;;5095141;28;20031;-62
2023/10/20 01:49:49;;;;;;;;;;;23.30;48.60;;;;;;5094949;28;19957;-62
2023/10/20 01:52:16;;;;;;;;;;;23.30;48.60;;;;;;5094346;28;19928;-61
2023/10/20 01:54:43;;;;;;;;;;;23.30;48.60;;;;;;5094520;28;19969;-62
2023/10/20 01:57:10;;;;;;;;;;;23.30;48.60;;;;;;5095256;28;20364;-62
2023/10/20 01:59:37;;;;;;;;;;;23.30;48.60;;;;;;5094731;28;20403;-62
2023/10/20 02:02:04;;;;;;;;;;;23.30;48.60;;;;;;5094077;28;19963;-62
2023/10/20 02:04:31;;;;;;;;;;;23.30;48.70;;;;;;5095006;28;19963;-61
2023/10/20 02:06:58;;;;;;;;;;;23.30;48.70;;;;;;5094689;28;19924;-62
2023/10/20 02:09:25;;;;;;;;;;;23.30;48.60;;;;;;5090160;28;20001;-62
2023/10/20 02:11:56;;;;;;;;;;;23.30;48.70;;;;;;5094005;28;19924;-62
2023/10/20 02:14:24;;;;;;;;;;;23.30;48.70;;;;;;5074590;28;19931;-61
2023/10/20 02:16:51;;;;;;;;;;;23.20;48.60;;;;;;5074129;28;19931;-62
2023/10/20 02:19:18;;;;;;;;;;;23.30;48.70;;;;;;5074396;28;20388;-61
2023/10/20 02:21:47;;;;;;;;;;;23.30;48.70;;;;;;5074397;28;19928;-62
2023/10/20 02:24:14;;;;;;;;;;;23.20;48.60;;;;;;5074177;28;19963;-61
2023/10/20 02:26:41;;;;;;;;;;;23.30;48.70;;;;;;5074056;28;19931;-61
2023/10/20 02:29:08;;;;;;;;;;;23.30;48.60;;;;;;5074317;28;19970;-61
2023/10/20 02:31:35;;;;;;;;;;;23.30;48.60;;;;;;5077635;28;19928;-62
2023/10/20 02:34:01;;;;;;;;;;;23.30;48.60;;;;;;5093201;28;19924;-61
2023/10/20 02:36:30;;;;;;;;;;;23.30;48.60;;;;;;5094206;28;19928;-62
2023/10/20 02:38:57;;;;;;;;;;;23.30;48.60;;;;;;5094050;28;19928;-62
2023/10/20 02:41:24;;;;;;;;;;;23.30;48.60;;;;;;5094062;28;20364;-62
2023/10/20 02:43:51;;;;;;;;;;;23.30;48.60;;;;;;5094266;28;19924;-61
2023/10/20 02:46:18;;;;;;;;;;;23.30;48.60;;;;;;5093930;28;20018;-61
2023/10/20 02:48:45;;;;;;;;;;;23.30;48.60;;;;;;5094218;28;19985;-61
2023/10/20 02:51:12;;;;;;;;;;;23.30;48.60;;;;;;5093139;28;19930;-62
2023/10/20 02:53:40;;;;;;;;;;;23.30;48.60;;;;;;5093959;28;20040;-61
2023/10/20 02:56:11;;;;;;;;;;;23.30;48.60;;;;;;5092999;28;19924;-62
2023/10/20 02:58:38;;;;;;;;;;;23.30;48.60;;;;;;5092824;28;20249;-62
2023/10/20 03:01:07;;;;;;;;;;;23.30;48.60;;;;;;5093848;28;20019;-62
2023/10/20 03:03:35;;;;;;;;;;;23.30;48.60;;;;;;5093985;28;20048;-62
2023/10/20 03:06:03;;;;;;;;;;;23.20;48.60;;;;;;5094108;28;19927;-61
2023/10/20 03:08:30;;;;;;;;;;;23.30;48.70;;;;;;5090536;28;19993;-61
2023/10/20 03:10:57;;;;;;;;;;;23.30;48.70;;;;;;5093791;28;20396;-61
2023/10/20 03:13:25;;;;;;;;;;;23.30;48.70;;;;;;5093369;28;20011;-61
2023/10/20 03:15:52;;;;;;;;;;;23.30;48.70;;;;;;5093257;28;20014;-63
2023/10/20 03:18:19;;;;;;;;;;;23.30;48.60;;;;;;5090527;28;20023;-62
2023/10/20 03:20:48;;;;;;;;;;;23.30;49.20;;;;;;5093623;28;19924;-62
2023/10/20 03:23:16;;;;;;;;;;;23.20;48.60;;;;;;5093358;28;19955;-62
2023/10/20 03:25:43;;;;;;;;;;;23.20;48.60;;;;;;5080420;28;20011;-61
2023/10/20 03:28:10;;;;;;;;;;;23.20;48.70;;;;;;5072127;28;20377;-61
2023/10/20 03:30:38;;;;;;;;;;;23.20;48.70;;;;;;5073821;28;19929;-61
2023/10/20 03:33:06;;;;;;;;;;;23.20;48.70;;;;;;5072148;28;19925;-62
2023/10/20 03:35:33;;;;;;;;;;;23.20;48.70;;;;;;5073098;28;19925;-61
2023/10/20 03:38:03;;;;;;;;;;;23.20;48.70;;;;;;5072270;28;19929;-62
2023/10/20 03:40:46;;;;;;;;;;;23.20;48.70;;;;;;5072998;28;20094;-61
2023/10/20 03:43:13;;;;;;;;;;;23.20;48.70;;;;;;5073103;28;19974;-62
2023/10/20 03:45:56;;;;;;;;;;;23.20;48.70;;;;;;5082341;28;19931;-61
2023/10/20 03:48:23;;;;;;;;;;;23.30;48.70;;;;;;5093524;28;19924;-61
2023/10/20 03:50:52;;;;;;;;;;;23.30;48.70;;;;;;5093446;28;20042;-62
2023/10/20 03:53:22;;;;;;;;;;;23.20;48.60;;;;;;5090251;28;20372;-61
2023/10/20 03:55:57;;;;;;;;;;;23.30;48.70;;;;;;5082417;28;19934;-62
2023/10/20 03:58:25;;;;;;;;;;;23.20;48.60;;;;;;5092991;28;20357;-68
2023/10/20 04:00:53;;;;;;;;;;;23.30;48.70;;;;;;5093340;28;20425;-62
2023/10/20 04:03:20;;;;;;;;;;;23.20;48.60;;;;;;5082242;28;20002;-66
2023/10/20 04:05:47;;;;;;;;;;;23.20;48.60;;;;;;5072741;28;20423;-62
2023/10/20 04:08:16;;;;;;;;;;;23.30;48.70;;;;;;5072501;28;19932;-62
2023/10/20 04:10:43;;;;;;;;;;;23.30;48.70;;;;;;5075410;28;19925;-65
2023/10/20 04:13:12;;;;;;;;;;;23.20;48.70;;;;;;5093155;28;19986;-65
2023/10/20 04:15:39;;;;;;;;;;;23.20;48.60;;;;;;5092555;28;20451;-66
2023/10/20 04:18:06;;;;;;;;;;;23.20;48.70;;;;;;5091974;28;19993;-64
2023/10/20 04:20:41;;;;;;;;;;;23.20;48.60;;;;;;5093140;28;19931;-62
2023/10/20 04:23:08;;;;;;;;;;;23.20;48.70;;;;;;5093116;28;19924;-63
2023/10/20 04:25:52;;;;;;;;;;;23.20;48.70;;;;;;5094925;28;19931;-63
2023/10/20 04:28:20;;;;;;;;;;;23.20;48.70;;;;;;5095145;28;19939;-63
2023/10/20 04:42:44;;;;;;;;;;;23.20;48.70;;;;;;5086125;28;19966;-62
2023/10/20 04:44:59;;;;;;;;;;;23.20;48.70;;;;;;5091752;28;19959;-64
2023/10/20 04:48:01;;;;;;;;;;;23.20;48.80;;;;;;5096257;28;19924;-62
2023/10/20 04:56:23;;;;;;;;;;;23.20;49.20;;;;;;5095900;28;20272;-62
2023/10/20 04:58:58;;;;;;;;;;;23.20;49.20;;;;;;5096069;28;19924;-62
2023/10/20 05:01:38;;;;;;;;;;;23.20;49.30;;;;;;5094604;28;20340;-61
2023/10/20 05:04:24;;;;;;;;;;;23.20;49.30;;;;;;5074052;28;19928;-61
2023/10/20 05:07:05;;;;;;;;;;;23.20;49.60;;;;;;5074101;28;20016;-61
2023/10/20 05:09:35;;;;;;;;;;;23.20;49.60;;;;;;5079413;28;19950;-61
2023/10/20 05:12:02;;;;;;;;;;;23.20;49.70;;;;;;5077709;28;20407;-62
2023/10/20 05:14:30;;;;;;;;;;;23.20;49.90;;;;;;5077032;28;19924;-61
2023/10/20 05:16:57;;;;;;;;;;;23.20;50.10;;;;;;5088544;28;19924;-61
2023/10/20 05:19:25;;;;;;;;;;;23.20;50.30;;;;;;5086872;28;20458;-63
2023/10/20 05:21:53;;;;;;;;;;;23.20;50.40;;;;;;5095837;28;19977;-62
2023/10/20 05:24:20;;;;;;;;;;;23.20;50.70;;;;;;5089050;28;19957;-61
2023/10/20 05:26:47;;;;;;;;;;;23.20;50.90;;;;;;5081327;28;19924;-60
2023/10/20 05:29:14;;;;;;;;;;;23.30;51.00;;;;;;5084145;28;19977;-61
2023/10/20 05:31:41;;;;;;;;;;;23.30;51.10;;;;;;5079848;28;19931;-62
2023/10/20 05:34:09;;;;;;;;;;;23.30;51.20;;;;;;5082071;28;19950;-62
2023/10/20 05:36:36;;;;;;;;;;;23.30;51.20;;;;;;5084275;28;19928;-61
2023/10/20 05:39:03;;;;;;;;;;;23.30;51.20;;;;;;5078410;28;20403;-62
2023/10/20 05:41:30;;;;;;;;;;;23.40;51.40;;;;;;5073055;28;19932;-61
2023/10/20 05:43:57;;;;;;;;;;;23.40;51.50;;;;;;5076085;28;19942;-61
2023/10/20 05:46:25;;;;;;;;;;;23.40;51.60;;;;;;5076002;28;19924;-61
2023/10/20 05:48:52;;;;;;;;;;;23.50;51.60;;;;;;5073959;28;19931;-62
2023/10/20 05:51:20;;;;;;;;;;;23.50;51.60;;;;;;5073531;28;19960;-62
2023/10/20 05:53:47;;;;;;;;;;;23.60;51.70;;;;;;5072980;28;19967;-60
2023/10/20 05:56:14;;;;;;;;;;;23.60;51.70;;;;;;5082910;28;20376;-60
2023/10/20 05:58:41;;;;;;;;;;;23.60;51.50;;;;;;5076734;28;19936;-60
2023/10/20 06:01:11;;;;;;;;;;;23.70;51.50;;;;;;5074161;28;19928;-61
2023/10/20 06:03:39;;;;;;;;;;;23.70;51.20;;;;;;5076970;28;19928;-61
2023/10/20 06:06:07;;;;;;;;;;;23.70;51.00;;;;;;5071614;28;19935;-63
2023/10/20 06:08:34;;;;;;;;;;;23.70;50.90;;;;;;5069654;28;19944;-62
2023/10/20 06:11:03;;;;;;;;;;;23.70;50.80;;;;;;5076406;28;19932;-62
2023/10/20 06:13:32;;;;;;;;;;;23.80;50.70;;;;;;5074577;28;19936;-63
2023/10/20 06:16:09;;;;;;;;;;;23.80;50.60;;;;;;5077193;28;19924;-63
2023/10/20 06:18:38;;;;;;;;;;;23.80;50.50;;;;;;5072566;28;19924;-62
2023/10/20 06:21:05;;;;;;;;;;;23.80;50.60;;;;;;5076250;28;19929;-64
2023/10/20 06:23:32;;;;;;;;;;;23.90;50.60;;;;;;5076017;28;19924;-64
2023/10/20 06:26:00;;;;;;;;;;;23.90;50.70;;;;;;5073558;28;19932;-60
2023/10/20 06:28:27;;;;;;;;;;;23.90;50.70;;;;;;5075031;28;19924;-61
2023/10/20 06:30:57;;;;;;;;;;;23.90;50.60;;;;;;5074661;28;20014;-61
2023/10/20 06:33:29;;;;;;;;;;;24.00;50.70;;;;;;5072266;28;19932;-61
2023/10/20 06:36:10;;;;;;;;;;;23.90;50.60;;;;;;5073079;28;19938;-62
2023/10/20 06:38:45;;;;;;;;;;;24.00;50.60;;;;;;5075507;28;19928;-61
2023/10/20 06:41:16;;;;;;;;;;;24.00;50.60;;;;;;5071570;28;20460;-64
2023/10/20 06:43:43;;;;;;;;;;;24.00;51.10;;;;;;5072858;28;19930;-65
2023/10/20 06:46:14;;;;;;;;;;;24.00;50.50;;;;;;5072886;28;19924;-65
2023/10/20 06:48:41;;;;;;;;;;;24.00;50.50;;;;;;5072009;28;19982;-67
2023/10/20 06:51:08;;;;;;;;;;;24.10;50.50;;;;;;5075966;28;19937;-65
2023/10/20 06:53:35;;;;;;;;;;;24.10;50.50;;;;;;5075902;28;20011;-60
2023/10/20 06:56:05;;;;;;;;;;;24.10;50.40;;;;;;5074196;28;19932;-60
2023/10/20 06:58:41;;;;;;;;;;;24.10;50.30;;;;;;5071557;28;19935;-60
2023/10/20 07:01:08;;;;;;;;;;;24.20;50.30;;;;;;5077124;28;19928;-60
2023/10/20 07:03:35;;;;;;;;;;;24.20;50.30;;;;;;5069845;28;20027;-59
2023/10/20 07:06:07;;;;;;;;;;;24.20;50.30;;;;;;5069950;28;19971;-60
2023/10/20 07:08:34;;;;;;;;;;;24.20;50.20;;;;;;5073721;28;19928;-61
2023/10/20 07:11:02;;;;;;;;;;;24.30;50.30;;;;;;5072396;28;20015;-61
2023/10/20 07:13:31;;;;;;;;;;;24.30;50.40;;;;;;5067225;28;19934;-62
2023/10/20 07:15:58;;;;;;;;;;;24.30;50.60;;;;;;5066750;28;19925;-64
2023/10/20 07:18:26;;;;;;;;;;;24.30;50.50;;;;;;5067992;28;20311;-63
2023/10/20 07:20:55;;;;;;;;;;;24.40;50.40;;;;;;5069478;28;19928;-63
2023/10/20 07:23:24;;;;;;;;;;;24.40;50.20;;;;;;5072436;28;19979;-63
2023/10/20 07:25:52;;;;;;;;;;;24.40;50.10;;;;;;5071033;28;20275;-62
2023/10/20 07:28:20;;;;;;;;;;;24.40;50.00;;;;;;5074828;28;19935;-61
2023/10/20 07:30:47;;;;;;;;;;;24.50;50.30;;;;;;5074552;28;19933;-61
2023/10/20 07:33:17;;;;;;;;;;;24.50;49.90;;;;;;5075201;28;19938;-62
2023/10/20 07:35:45;;;;;;;;;;;24.50;49.80;;;;;;5075760;28;19928;-63
2023/10/20 07:38:15;;;;;;;;;;;24.50;49.70;;;;;;5079939;28;19924;-63
2023/10/20 07:40:42;;;;;;;;;;;24.50;49.70;;;;;;5072924;28;19925;-62
2023/10/20 07:43:11;;;;;;;;;;;24.60;49.80;;;;;;5068412;28;20022;-63
2023/10/20 07:45:40;;;;;;;;;;;24.60;49.70;;;;;;5074823;28;19974;-63
2023/10/20 07:48:08;;;;;;;;;;;24.60;49.70;;;;;;5072925;28;19994;-62
2023/10/20 07:50:36;;;;;;;;;;;24.60;49.60;;;;;;5075143;28;19935;-64
2023/10/20 07:53:03;;;;;;;;;;;24.70;49.60;;;;;;5079364;28;19924;-62
2023/10/20 07:55:30;;;;;;;;;;;24.70;49.50;;;;;;5063237;28;20050;-62
2023/10/20 07:57:57;;;;;;;;;;;24.70;49.50;;;;;;5069674;28;20410;-61
2023/10/20 08:00:24;;;;;;;;;;;24.70;49.30;;;;;;5077274;28;20205;-63
2023/10/20 08:02:53;;;;;;;;;;;24.80;49.30;;;;;;5075399;28;19931;-64
2023/10/20 08:05:24;;;;;;;;;;;24.80;49.20;;;;;;5079689;28;19932;-63
2023/10/20 08:07:53;;;;;;;;;;;24.80;49.10;;;;;;5076444;28;20408;-61
2023/10/20 08:10:21;;;;;;;;;;;24.90;49.10;;;;;;5080206;28;19928;-63
2023/10/20 08:12:49;;;;;;;;;;;24.90;49.10;;;;;;5077224;28;19970;-62
2023/10/20 08:15:16;;;;;;;;;;;25.00;48.90;;;;;;5078615;28;19972;-63
2023/10/20 08:17:48;;;;;;;;;;;25.00;48.80;;;;;;5076124;28;19940;-62
2023/10/20 08:20:16;;;;;;;;;;;25.00;48.70;;;;;;5076679;28;19924;-62
2023/10/20 08:22:43;;;;;;;;;;;25.00;48.70;;;;;;5077440;28;19934;-63
2023/10/20 08:25:11;;;;;;;;;;;25.10;48.70;;;;;;5080238;28;19931;-62
2023/10/20 08:27:38;;;;;;;;;;;25.10;48.60;;;;;;5074968;28;19951;-62
2023/10/20 08:30:05;;;;;;;;;;;25.10;48.60;;;;;;5072231;28;19936;-61
2023/10/20 08:32:32;;;;;;;;;;;25.10;48.50;;;;;;5072451;28;20097;-62
2023/10/20 08:35:00;;;;;;;;;;;25.20;48.40;;;;;;5078007;28;19939;-62
2023/10/20 08:37:28;;;;;;;;;;;25.20;48.40;;;;;;5067306;28;19932;-62
2023/10/20 08:39:55;;;;;;;;;;;25.20;48.40;;;;;;5072210;28;19940;-61
2023/10/20 08:42:22;;;;;;;;;;;25.30;48.40;;;;;;5073343;28;20006;-61
2023/10/20 08:44:50;;;;;;;;;;;25.30;48.30;;;;;;5074227;28;19932;-60
2023/10/20 08:47:19;;;;;;;;;;;25.40;48.10;;;;;;5076376;28;20011;-61
2023/10/20 08:49:47;;;;;;;;;;;25.40;48.00;;;;;;5074399;28;19947;-61
2023/10/20 08:52:14;;;;;;;;;;;25.40;48.00;;;;;;5073780;28;19954;-61
2023/10/20 08:54:41;;;;;;;;;;;25.50;48.00;;;;;;5073778;28;19932;-62
2023/10/20 08:57:08;;;;;;;;;;;25.50;48.00;;;;;;5067936;28;19932;-62
2023/10/20 08:59:36;;;;;;;;;;;25.50;47.90;;;;;;5074972;28;20031;-60
2023/10/20 09:02:04;;;;;;;;;;;25.50;47.80;;;;;;5074114;28;19976;-63
2023/10/20 09:04:31;;;;;;;;;;;25.60;47.80;;;;;;5074183;28;20027;-61
2023/10/20 09:07:11;;;;;;;;;;;25.70;47.80;;;;;;5075761;28;19942;-63
2023/10/20 09:09:38;;;;;;;;;;;25.70;47.70;;;;;;5069809;28;19970;-65
2023/10/20 09:12:08;;;;;;;;;;;25.70;47.60;;;;;;5072121;28;19943;-67
2023/10/20 09:14:42;;;;;;;;;;;25.70;47.60;;;;;;5076317;28;20024;-64
2023/10/20 09:17:19;;;;;;;;;;;25.80;47.60;;;;;;5069980;28;19928;-63
2023/10/20 09:19:47;;;;;;;;;;;25.80;47.40;;;;;;5070929;28;19928;-62
2023/10/20 09:22:14;;;;;;;;;;;25.90;47.30;;;;;;5075467;28;19934;-63
2023/10/20 09:24:41;;;;;;;;;;;25.90;47.20;;;;;;5079092;28;19928;-62
2023/10/20 09:27:08;;;;;;;;;;;25.90;47.20;;;;;;5076581;28;20423;-62
2023/10/20 09:29:37;;;;;;;;;;;26.00;47.20;;;;;;5075807;28;19955;-62
2023/10/20 09:32:05;;;;;;;;;;;26.00;47.00;;;;;;5075049;28;20253;-63
2023/10/20 09:34:32;;;;;;;;;;;26.00;47.00;;;;;;5074879;28;20000;-62
2023/10/20 09:37:00;;;;;;;;;;;26.00;47.00;;;;;;5079788;28;19982;-61
2023/10/20 09:39:37;;;;;;;;;;;26.00;47.00;;;;;;5071866;28;19935;-62
2023/10/20 09:42:05;;;;;;;;;;;26.00;47.00;;;;;;5077872;28;19929;-62
2023/10/20 09:44:39;;;;;;;;;;;26.00;47.10;;;;;;5079348;28;20450;-63
2023/10/20 09:47:17;;;;;;;;;;;25.90;47.00;;;;;;5072361;28;19924;-61
2023/10/20 09:49:44;;;;;;;;;;;25.90;47.10;;;;;;5077303;28;19936;-64
2023/10/20 09:52:12;;;;;;;;;;;25.90;47.10;;;;;;5079308;28;19950;-62
2023/10/20 09:54:39;;;;;;;;;;;25.90;47.20;;;;;;5077609;28;20023;-62
2023/10/20 09:57:06;;;;;;;;;;;25.90;47.30;;;;;;5082901;28;19924;-63
2023/10/20 09:59:38;;;;;;;;;;;25.90;47.40;;;;;;5076471;28;20000;-62
2023/10/20 10:02:06;;;;;;;;;;;25.90;47.40;;;;;;5077716;28;19932;-63
2023/10/20 10:04:37;;;;;;;;;;;25.80;47.30;;;;;;5078599;28;19942;-63
2023/10/20 10:07:08;;;;;;;;;;;25.90;47.80;;;;;;5069614;28;19958;-64
2023/10/20 10:09:37;;;;;;;;;;;25.90;47.30;;;;;;5074105;28;19924;-61
2023/10/20 10:12:08;;;;;;;;;;;25.90;47.50;;;;;;5076908;28;19928;-65
2023/10/20 10:14:36;;;;;;;;;;;25.90;47.50;;;;;;5073204;28;19939;-64
2023/10/20 10:17:08;;;;;;;;;;;25.90;47.50;;;;;;5074285;28;19976;-64
2023/10/20 10:19:35;;;;;;;;;;;25.90;47.50;;;;;;5074273;28;19928;-67
2023/10/20 10:22:04;;;;;;;;;;;25.90;47.50;;;;;;5077131;28;20281;-67
2023/10/20 10:24:36;;;;;;;;;;;25.90;47.50;;;;;;5070515;28;19928;-67
2023/10/20 10:27:05;;;;;;;;;;;25.90;47.60;;;;;;5077885;28;20257;-67
2023/10/20 10:29:59;;;;;;;;;;;26.00;47.50;;;;;;5081072;28;20460;-67
2023/10/20 10:32:33;;;;;;;;;;;26.00;47.40;;;;;;5078480;28;20010;-67
2023/10/20 10:35:01;;;;;;;;;;;26.00;47.30;;;;;;5075390;28;19933;-65
2023/10/20 10:37:30;;;;;;;;;;;26.00;47.30;;;;;;5074977;28;19977;-68
2023/10/20 10:40:10;;;;;;;;;;;26.10;47.40;;;;;;5070064;28;19963;-68
2023/10/20 10:42:39;;;;;;;;;;;26.10;47.30;;;;;;5075317;28;19928;-66
2023/10/20 10:45:27;;;;;;;;;;;26.10;47.20;;;;;;5076093;28;19963;-66
2023/10/20 10:48:05;;;;;;;;;;;26.10;47.20;;;;;;5071984;28;20015;-63
2023/10/20 10:50:32;;;;;;;;;;;26.20;47.20;;;;;;5069991;28;20015;-64
2023/10/20 10:53:01;;;;;;;;;;;26.20;47.10;;;;;;5068952;28;19931;-63
2023/10/20 10:55:29;;;;;;;;;;;26.20;47.10;;;;;;5086676;27;20046;-63
2023/10/20 10:58:04;;;;;;;;;;;26.20;47.20;;;;;;5086120;28;19924;-64
2023/10/20 11:00:32;;;;;;;;;;;26.30;47.30;;;;;;5068031;28;19936;-63
2023/10/20 11:03:00;;;;;;;;;;;26.30;47.40;;;;;;5075385;28;19924;-64
2023/10/20 11:05:28;;;;;;;;;;;26.30;47.20;;;;;;5071253;28;19928;-65
2023/10/20 11:08:01;;;;;;;;;;;26.40;47.30;;;;;;5073979;28;20039;-63
2023/10/20 11:10:29;;;;;;;;;;;26.40;47.10;;;;;;5079425;28;20326;-63
2023/10/20 11:12:56;;;;;;;;;;;26.40;46.90;;;;;;5075814;28;19968;-63
2023/10/20 11:15:30;;;;;;;;;;;26.40;46.70;;;;;;5071049;28;19943;-64
2023/10/20 11:18:01;;;;;;;;;;;26.50;46.90;;;;;;5070019;28;19924;-63
2023/10/20 11:20:41;;;;;;;;;;;26.50;46.70;;;;;;5072068;28;19928;-63
2023/10/20 11:23:12;;;;;;;;;;;26.50;46.80;;;;;;5069975;28;19924;-65
2023/10/20 11:25:42;;;;;;;;;;;26.50;46.70;;;;;;5070575;28;19939;-62
2023/10/20 11:28:10;;;;;;;;;;;26.60;46.80;;;;;;5071661;28;19964;-64
2023/10/20 11:30:38;;;;;;;;;;;26.50;46.80;;;;;;5069358;28;20381;-63
2023/10/20 11:33:06;;;;;;;;;;;26.50;46.80;;;;;;5073242;28;19932;-63
2023/10/20 11:35:33;;;;;;;;;;;26.60;46.80;;;;;;5074169;28;19925;-64
2023/10/20 11:38:00;;;;;;;;;;;26.60;46.70;;;;;;5076480;28;20379;-62
2023/10/20 11:40:28;;;;;;;;;;;26.60;46.60;;;;;;5075204;28;20005;-62
2023/10/20 11:42:55;;;;;;;;;;;26.60;46.50;;;;;;5081115;28;20012;-62
2023/10/20 11:45:22;;;;;;;;;;;26.60;46.40;;;;;;5080577;28;19924;-63
2023/10/20 11:47:50;;;;;;;;;;;26.60;46.30;;;;;;5076007;28;19955;-64
2023/10/20 11:50:21;;;;;;;;;;;26.60;46.10;;;;;;5077064;28;20300;-65
2023/10/20 11:52:49;;;;;;;;;;;26.60;46.00;;;;;;5075868;28;19924;-63
2023/10/20 11:55:18;;;;;;;;;;;26.60;45.90;;;;;;5080520;28;20379;-63
2023/10/20 11:57:45;;;;;;;;;;;26.60;45.80;;;;;;5086012;28;19933;-63
2023/10/20 12:00:13;;;;;;;;;;;26.60;45.70;;;;;;5079724;28;20342;-63
2023/10/20 12:02:41;;;;;;;;;;;26.70;45.60;;;;;;5080436;28;20114;-62
2023/10/20 12:05:10;;;;;;;;;;;26.70;45.50;;;;;;5084547;28;19925;-65
2023/10/20 12:07:37;;;;;;;;;;;26.70;45.50;;;;;;5083373;28;19943;-60
2023/10/20 12:10:05;;;;;;;;;;;26.70;45.90;;;;;;5083483;28;19925;-60
2023/10/20 12:12:35;;;;;;;;;;;26.70;45.90;;;;;;5078628;28;19931;-60
2023/10/20 12:15:02;;;;;;;;;;;26.60;45.80;;;;;;5080039;28;20327;-60
2023/10/20 12:17:30;;;;;;;;;;;26.60;45.90;;;;;;5081394;28;19924;-60
2023/10/20 12:19:57;;;;;;;;;;;26.60;46.00;;;;;;5085607;28;20379;-60
2023/10/20 12:22:25;;;;;;;;;;;26.60;46.10;;;;;;5096274;28;19925;-60
2023/10/20 12:24:53;;;;;;;;;;;26.60;46.20;;;;;;5080622;28;19924;-59
2023/10/20 12:27:21;;;;;;;;;;;26.50;46.20;;;;;;5084782;28;20335;-62
2023/10/20 12:29:48;;;;;;;;;;;26.60;46.30;;;;;;5085858;28;19933;-60
2023/10/20 12:32:15;;;;;;;;;;;26.60;46.30;;;;;;5075927;28;19928;-59
2023/10/20 12:34:43;;;;;;;;;;;26.50;46.20;;;;;;5075381;28;19925;-59
2023/10/20 12:37:10;;;;;;;;;;;26.60;46.30;;;;;;5084184;28;19955;-59
2023/10/20 12:39:39;;;;;;;;;;;26.50;46.20;;;;;;5095842;28;20283;-59
2023/10/20 12:42:07;;;;;;;;;;;26.50;46.20;;;;;;5090228;28;19940;-60
2023/10/20 12:44:34;;;;;;;;;;;26.50;46.20;;;;;;5082578;28;20023;-59
2023/10/20 12:47:02;;;;;;;;;;;26.50;46.20;;;;;;5093656;28;19924;-59
2023/10/20 12:49:31;;;;;;;;;;;26.50;46.20;;;;;;5076431;28;19928;-59
2023/10/20 12:51:59;;;;;;;;;;;26.50;46.20;;;;;;5080537;28;19939;-59
2023/10/20 12:54:29;;;;;;;;;;;26.50;46.30;;;;;;5089588;28;20322;-59
2023/10/20 12:56:58;;;;;;;;;;;26.50;46.30;;;;;;5083992;28;20030;-59
2023/10/20 12:59:25;;;;;;;;;;;26.40;46.20;;;;;;5078419;28;19928;-59
2023/10/20 13:01:53;;;;;;;;;;;26.50;46.30;;;;;;5077264;28;19932;-59
2023/10/20 13:04:20;;;;;;;;;;;26.40;46.30;;;;;;5092317;28;20288;-59
2023/10/20 13:06:48;;;;;;;;;;;26.40;46.40;;;;;;5082774;28;19978;-59
2023/10/20 13:09:26;;;;;;;;;;;26.40;46.50;;;;;;5075594;28;19928;-59
2023/10/20 13:11:53;;;;;;;;;;;26.40;46.60;;;;;;5078360;28;20015;-59
2023/10/20 13:14:20;;;;;;;;;;;26.40;46.70;;;;;;5075580;28;20311;-59
2023/10/20 13:16:47;;;;;;;;;;;26.40;46.90;;;;;;5075020;28;19924;-59
2023/10/20 13:19:15;;;;;;;;;;;26.40;47.10;;;;;;5075793;28;19924;-59
2023/10/20 13:21:42;;;;;;;;;;;26.30;47.10;;;;;;5089972;28;20292;-59
2023/10/20 13:24:09;;;;;;;;;;;26.40;47.30;;;;;;5074190;28;19932;-59
2023/10/20 13:26:37;;;;;;;;;;;26.40;47.60;;;;;;5085803;28;19930;-59
2023/10/20 13:29:05;;;;;;;;;;;26.40;47.70;;;;;;5089685;28;20391;-60
2023/10/20 13:31:33;;;;;;;;;;;26.40;47.50;;;;;;5083476;28;19928;-59
2023/10/20 13:34:02;;;;;;;;;;;26.50;47.30;;;;;;5093285;28;19924;-59
2023/10/20 13:36:29;;;;;;;;;;;26.40;47.60;;;;;;5094574;28;20380;-59
2023/10/20 13:38:56;;;;;;;;;;;26.40;48.20;;;;;;5094786;28;20281;-59
2023/10/20 13:41:23;;;;;;;;;;;26.50;49.00;;;;;;5093794;28;19935;-59
2023/10/20 13:43:51;;;;;;;;;;;26.50;48.90;;;;;;5094154;28;20377;-59
2023/10/20 13:46:20;;;;;;;;;;;26.50;48.40;;;;;;5094366;28;19977;-58
2023/10/20 13:48:47;;;;;;;;;;;26.50;47.90;;;;;;5093859;28;19931;-59
2023/10/20 13:51:15;;;;;;;;;;;26.50;47.60;;;;;;5094438;28;19982;-58
2023/10/20 13:53:42;;;;;;;;;;;26.40;47.30;;;;;;5094714;28;20365;-58
2023/10/20 13:56:09;;;;;;;;;;;26.50;47.30;;;;;;5094888;28;19964;-59
2023/10/20 13:58:36;;;;;;;;;;;26.50;47.20;;;;;;5094472;28;20369;-59
2023/10/20 14:01:03;;;;;;;;;;;26.50;47.10;;;;;;5094995;28;19997;-58
2023/10/20 14:03:30;;;;;;;;;;;26.40;47.10;;;;;;5082407;28;19978;-59
2023/10/20 14:05:57;;;;;;;;;;;26.50;47.70;;;;;;5080261;28;19931;-58
2023/10/20 14:08:24;;;;;;;;;;;26.40;47.10;;;;;;5073099;28;19928;-59
2023/10/20 14:10:53;;;;;;;;;;;26.40;47.20;;;;;;5074044;28;20351;-58
2023/10/20 14:13:21;;;;;;;;;;;26.30;47.20;;;;;;5074511;28;19970;-59
2023/10/20 14:15:49;;;;;;;;;;;26.30;47.30;;;;;;5073955;28;20387;-59
2023/10/20 14:18:17;;;;;;;;;;;26.30;47.40;;;;;;5073964;28;19972;-59
2023/10/20 14:20:44;;;;;;;;;;;26.30;47.40;;;;;;5074397;28;20027;-58
2023/10/20 14:23:12;;;;;;;;;;;26.30;47.50;;;;;;5073922;28;19925;-58
2023/10/20 14:25:39;;;;;;;;;;;26.20;47.50;;;;;;5073780;28;19925;-59
2023/10/20 14:28:06;;;;;;;;;;;26.20;47.60;;;;;;5074265;28;20046;-58
2023/10/20 14:30:33;;;;;;;;;;;26.20;47.80;;;;;;5074357;28;19925;-58
2023/10/20 14:33:01;;;;;;;;;;;26.10;47.80;;;;;;5089833;28;19970;-58
2023/10/20 14:35:28;;;;;;;;;;;26.10;47.90;;;;;;5094039;28;20395;-58
2023/10/20 14:37:58;;;;;;;;;;;26.10;48.00;;;;;;5094381;28;19977;-58
2023/10/20 14:40:26;;;;;;;;;;;26.10;48.10;;;;;;5094472;28;19924;-59
2023/10/20 14:42:53;;;;;;;;;;;26.10;48.10;;;;;;5094148;28;20397;-60